Time;durP1;ratioP1;P1;durP2;ratioP2;P2;SDS_P1;SDS_P2;PMS_P1;PMS_P2;Temp;Humidity;BMP_temperature;BMP_pressure;BME280_temperature;BME280_humidity;BME280_pressure;Samples;Min_cycle;Max_cycle;Signal;HPM_P1;HPM_P2
2022/08/19 00:00:18;;;;;;;;;;;;;;;28.24;100.00;97172.53;5118847;28;19920;-61
2022/08/19 00:02:46;;;;;;;;;;;;;;;28.02;100.00;97159.97;5122326;28;19920;-61
2022/08/19 00:05:15;;;;;;;;;;;;;;;28.16;100.00;97164.69;5122233;28;19931;-61
2022/08/19 00:07:42;;;;;;;;;;;;;;;28.20;100.00;97168.19;5119359;28;19939;-61
2022/08/19 00:10:10;;;;;;;;;;;;;;;28.30;100.00;97172.88;5118893;28;19928;-62
2022/08/19 00:12:37;;;;;;;;;;;;;;;28.38;100.00;97169.72;5103054;28;19924;-61
2022/08/19 00:15:04;;;;;;;;;;;;;;;28.45;100.00;97177.16;5122035;28;20010;-61
2022/08/19 00:17:30;;;;;;;;;;;;;;;28.41;100.00;97185.41;5120480;28;19988;-62
2022/08/19 00:19:57;;;;;;;;;;;;;;;28.27;100.00;97188.19;5118527;28;19955;-61
2022/08/19 00:22:26;;;;;;;;;;;;;;;28.42;100.00;97194.44;5119002;28;19924;-61
2022/08/19 00:24:53;;;;;;;;;;;;;;;28.42;100.00;97202.66;5134226;28;19955;-61
2022/08/19 00:27:19;;;;;;;;;;;;;;;28.38;100.00;97202.69;5121950;28;19991;-61
2022/08/19 00:29:45;;;;;;;;;;;;;;;27.95;100.00;97203.09;5118532;28;19931;-61
2022/08/19 00:32:12;;;;;;;;;;;;;;;28.12;100.00;97208.63;5118219;28;19978;-60
2022/08/19 00:34:38;;;;;;;;;;;;;;;28.19;100.00;97207.84;5120911;28;19924;-62
2022/08/19 00:37:05;;;;;;;;;;;;;;;28.28;100.00;97216.44;5121680;28;20602;-62
2022/08/19 00:39:32;;;;;;;;;;;;;;;28.33;100.00;97224.28;5120300;28;19923;-62
2022/08/19 00:41:59;;;;;;;;;;;;;;;28.24;100.00;97218.41;5118454;28;19970;-62
2022/08/19 00:44:26;;;;;;;;;;;;;;;28.21;100.00;97224.69;5118789;28;19967;-62
2022/08/19 00:46:54;;;;;;;;;;;;;;;28.28;100.00;97216.44;5125676;28;19959;-62
2022/08/19 00:49:24;;;;;;;;;;;;;;;28.33;100.00;97235.25;5125793;28;19951;-62
2022/08/19 00:51:52;;;;;;;;;;;;;;;28.27;100.00;97225.84;5122267;28;19956;-62
2022/08/19 00:54:19;;;;;;;;;;;;;;;28.22;100.00;97224.31;5133519;27;19956;-62
2022/08/19 00:56:47;;;;;;;;;;;;;;;28.24;100.00;97224.69;5125790;28;19987;-62
2022/08/19 00:59:14;;;;;;;;;;;;;;;28.19;100.00;97219.59;5125789;28;19995;-62
2022/08/19 01:01:42;;;;;;;;;;;;;;;28.21;100.00;97214.50;5122910;28;19987;-62
2022/08/19 01:04:08;;;;;;;;;;;;;;;28.14;100.00;97228.22;5103898;28;19958;-61
2022/08/19 01:06:36;;;;;;;;;;;;;;;28.19;100.00;97238.81;5124005;28;19966;-61
2022/08/19 01:09:03;;;;;;;;;;;;;;;28.21;100.00;97250.19;5125510;28;19924;-61
2022/08/19 01:11:30;;;;;;;;;;;;;;;28.17;100.00;97243.91;5124317;28;19987;-61
2022/08/19 01:13:59;;;;;;;;;;;;;;;28.12;100.00;97254.50;5121927;28;19995;-61
2022/08/19 01:16:27;;;;;;;;;;;;;;;28.19;100.00;97265.50;5122258;28;19959;-61
2022/08/19 01:18:54;;;;;;;;;;;;;;;28.12;100.00;97270.97;5125231;28;19920;-61
2022/08/19 01:21:23;;;;;;;;;;;;;;;28.11;100.00;97266.66;5125321;28;19970;-61
2022/08/19 01:23:51;;;;;;;;;;;;;;;28.16;100.00;97261.53;5116585;27;19959;-62
2022/08/19 01:26:18;;;;;;;;;;;;;;;28.16;100.00;97253.31;5129950;27;19924;-61
2022/08/19 01:28:46;;;;;;;;;;;;;;;27.85;100.00;97243.88;5124934;28;19987;-61
2022/08/19 01:31:15;;;;;;;;;;;;;;;27.80;100.00;97248.97;5124918;28;19920;-62
2022/08/19 01:33:41;;;;;;;;;;;;;;;27.74;100.00;97248.59;5121960;28;19955;-61
2022/08/19 01:36:08;;;;;;;;;;;;;;;27.67;100.00;97248.59;5121158;28;19958;-62
2022/08/19 01:38:36;;;;;;;;;;;;;;;27.77;100.00;97249.75;5122918;28;19932;-62
2022/08/19 01:41:05;;;;;;;;;;;;;;;27.94;100.00;97259.19;5124763;28;19924;-62
2022/08/19 01:43:31;;;;;;;;;;;;;;;28.00;100.00;97243.91;5123144;28;19991;-61
2022/08/19 01:45:57;;;;;;;;;;;;;;;28.09;100.00;97258.81;5121239;28;19928;-61
2022/08/19 01:48:24;;;;;;;;;;;;;;;28.06;100.00;97253.34;5121595;28;19971;-61
2022/08/19 01:50:50;;;;;;;;;;;;;;;27.90;100.00;97245.47;5124758;28;19955;-61
2022/08/19 01:53:17;;;;;;;;;;;;;;;27.79;100.00;97241.94;5124426;28;20034;-62
2022/08/19 01:55:44;;;;;;;;;;;;;;;27.20;100.00;97221.47;5133492;27;19925;-61
2022/08/19 01:58:13;;;;;;;;;;;;;;;26.43;100.00;97221.91;5120033;28;19950;-62
2022/08/19 02:00:39;;;;;;;;;;;;;;;26.25;100.00;97214.34;5123636;28;19956;-61
2022/08/19 02:03:06;;;;;;;;;;;;;;;26.28;100.00;97226.50;5124248;28;19930;-62
2022/08/19 02:05:32;;;;;;;;;;;;;;;26.87;100.00;97238.16;5122565;28;20014;-61
2022/08/19 02:07:59;;;;;;;;;;;;;;;27.13;100.00;97251.59;5120847;28;19933;-61
2022/08/19 02:10:26;;;;;;;;;;;;;;;27.39;100.00;97269.69;5121294;28;19955;-61
2022/08/19 02:12:52;;;;;;;;;;;;;;;27.50;100.00;97263.06;5124052;28;19968;-61
2022/08/19 02:15:20;;;;;;;;;;;;;;;27.67;100.00;97259.56;5124026;28;19953;-61
2022/08/19 02:17:47;;;;;;;;;;;;;;;27.78;100.00;97254.88;5112362;28;19931;-62
2022/08/19 02:20:14;;;;;;;;;;;;;;;27.66;100.00;97258.00;5112253;28;19979;-61
2022/08/19 02:22:42;;;;;;;;;;;;;;;27.78;100.00;97254.88;5112285;28;19932;-61
2022/08/19 02:25:09;;;;;;;;;;;;;;;27.78;100.00;97254.88;5130861;27;19927;-61
2022/08/19 02:27:35;;;;;;;;;;;;;;;27.88;100.00;97262.31;5121963;28;19920;-63
2022/08/19 02:30:02;;;;;;;;;;;;;;;27.97;100.00;97250.16;5120478;28;19955;-61
2022/08/19 02:32:30;;;;;;;;;;;;;;;27.89;100.00;97252.13;5120971;28;19963;-61
2022/08/19 02:34:56;;;;;;;;;;;;;;;27.87;100.00;97258.00;5123777;28;19924;-61
2022/08/19 02:40:07;;;;;;;;;;;;;;;27.97;100.00;97239.19;5120013;28;20013;-61
2022/08/19 02:42:34;;;;;;;;;;;;;;;27.91;100.00;97235.28;5121703;28;19924;-61
2022/08/19 02:45:00;;;;;;;;;;;;;;;27.86;100.00;97245.47;5123593;28;19951;-62
2022/08/19 02:47:26;;;;;;;;;;;;;;;27.92;100.00;97251.34;5122848;28;19930;-61
2022/08/19 02:49:54;;;;;;;;;;;;;;;27.85;100.00;97254.09;5119939;28;19927;-60
2022/08/19 02:52:23;;;;;;;;;;;;;;;27.87;100.00;97236.06;5119523;28;19927;-62
2022/08/19 02:54:49;;;;;;;;;;;;;;;27.97;100.00;97225.47;5127195;27;19988;-61
2022/08/19 02:57:15;;;;;;;;;;;;;;;27.87;100.00;97229.78;5123080;28;19923;-62
2022/08/19 02:59:42;;;;;;;;;;;;;;;27.96;100.00;97219.19;5120234;28;19939;-61
2022/08/19 03:02:08;;;;;;;;;;;;;;;27.91;100.00;97230.59;5119616;28;19924;-61
2022/08/19 03:04:34;;;;;;;;;;;;;;;27.89;100.00;97232.91;5121469;28;19924;-61
2022/08/19 03:07:02;;;;;;;;;;;;;;;27.79;100.00;97229.00;5123067;28;19952;-63
2022/08/19 03:09:29;;;;;;;;;;;;;;;27.79;100.00;97226.25;5121553;28;19967;-61
2022/08/19 03:11:56;;;;;;;;;;;;;;;27.86;100.00;97226.25;5119414;28;19920;-62
2022/08/19 03:14:22;;;;;;;;;;;;;;;27.87;100.00;97235.28;5119395;28;19951;-61
2022/08/19 03:16:50;;;;;;;;;;;;;;;27.83;100.00;97246.25;5122956;28;19934;-62
2022/08/19 03:19:18;;;;;;;;;;;;;;;27.85;100.00;97238.41;5122964;28;20089;-61
2022/08/19 03:21:45;;;;;;;;;;;;;;;27.77;100.00;97242.31;5119639;28;19956;-62
2022/08/19 03:24:14;;;;;;;;;;;;;;;27.85;100.00;97238.41;5128450;27;19923;-62
2022/08/19 03:26:41;;;;;;;;;;;;;;;27.81;100.00;97248.59;5123500;28;19924;-62
2022/08/19 03:29:10;;;;;;;;;;;;;;;27.85;100.00;97260.34;5122606;28;19940;-62
2022/08/19 03:31:37;;;;;;;;;;;;;;;27.67;100.00;97270.53;5120346;28;19934;-61
2022/08/19 03:34:04;;;;;;;;;;;;;;;27.71;100.00;97293.28;5118965;28;19951;-61
2022/08/19 03:36:30;;;;;;;;;;;;;;;27.57;100.00;97290.50;5119915;28;20067;-61
2022/08/19 03:38:58;;;;;;;;;;;;;;;27.64;100.00;97293.25;5122240;28;19924;-61
2022/08/19 03:41:28;;;;;;;;;;;;;;;27.70;100.00;97288.94;5121720;28;19986;-62
2022/08/19 03:43:54;;;;;;;;;;;;;;;27.64;100.00;97276.00;5118848;28;19963;-61
2022/08/19 03:46:22;;;;;;;;;;;;;;;27.64;100.00;97276.00;5118800;28;19952;-62
2022/08/19 03:48:49;;;;;;;;;;;;;;;27.73;100.00;97263.47;5100519;28;19931;-62
2022/08/19 03:51:16;;;;;;;;;;;;;;;27.75;100.00;97268.59;5118979;28;20464;-61
2022/08/19 03:53:43;;;;;;;;;;;;;;;27.82;100.00;97272.09;5122654;28;19991;-60
2022/08/19 03:56:10;;;;;;;;;;;;;;;27.81;100.00;97270.56;5129370;27;19927;-62
2022/08/19 03:58:38;;;;;;;;;;;;;;;27.78;100.00;97263.09;5120938;28;19959;-61
2022/08/19 04:01:08;;;;;;;;;;;;;;;27.83;100.00;97267.41;5122193;28;19983;-61
2022/08/19 04:03:35;;;;;;;;;;;;;;;27.74;100.00;97281.53;5120307;28;19962;-61
2022/08/19 04:06:10;;;;;;;;;;;;;;;27.63;100.00;97288.97;5118802;28;19946;-61
2022/08/19 04:08:37;;;;;;;;;;;;;;;27.69;100.00;97294.84;5120723;28;19924;-61
2022/08/19 04:11:07;;;;;;;;;;;;;;;27.69;100.00;97294.84;5122448;28;19962;-61
2022/08/19 04:13:34;;;;;;;;;;;;;;;27.72;100.00;97305.81;5120231;28;19966;-61
2022/08/19 04:16:01;;;;;;;;;;;;;;;27.70;100.00;97308.16;5118715;28;19928;-62
2022/08/19 04:18:29;;;;;;;;;;;;;;;27.69;100.00;97314.03;5119387;28;19952;-61
2022/08/19 04:20:56;;;;;;;;;;;;;;;27.78;100.00;97307.00;5124671;28;19967;-64
2022/08/19 04:23:23;;;;;;;;;;;;;;;27.51;100.00;97310.47;5126016;28;20015;-61
2022/08/19 04:25:49;;;;;;;;;;;;;;;27.28;100.00;97316.25;5134939;27;19935;-62
2022/08/19 04:28:15;;;;;;;;;;;;;;;27.21;100.00;97325.22;5122653;28;19924;-62
2022/08/19 04:30:42;;;;;;;;;;;;;;;27.24;100.00;97332.69;5125440;28;19935;-61
2022/08/19 04:33:11;;;;;;;;;;;;;;;27.37;100.00;97341.34;5126015;28;19958;-61
2022/08/19 04:35:38;;;;;;;;;;;;;;;27.54;100.00;97339.88;5123562;28;19962;-61
2022/08/19 04:38:05;;;;;;;;;;;;;;;27.57;100.00;97337.16;5122282;28;19935;-61
2022/08/19 04:43:15;;;;;;;;;;;;;;;27.15;100.00;97329.50;5125753;28;19920;-61
2022/08/19 04:45:42;;;;;;;;;;;;;;;26.78;100.00;97309.72;5123050;28;20007;-61
2022/08/19 04:48:09;;;;;;;;;;;;;;;26.56;100.00;97314.28;5122447;28;19931;-62
2022/08/19 04:50:37;;;;;;;;;;;;;;;26.47;100.00;97315.78;5124338;28;19920;-63
2022/08/19 04:53:04;;;;;;;;;;;;;;;26.73;100.00;97330.06;5125966;28;19923;-63
2022/08/19 04:55:31;;;;;;;;;;;;;;;26.73;100.00;97341.03;5136502;27;19966;-64
2022/08/19 04:57:57;;;;;;;;;;;;;;;26.56;100.00;97343.63;5122450;28;19963;-62
2022/08/19 05:00:24;;;;;;;;;;;;;;;26.61;100.00;97348.75;5122345;28;19955;-63
2022/08/19 05:02:50;;;;;;;;;;;;;;;26.83;100.00;97334.81;5107458;28;19950;-61
2022/08/19 05:05:17;;;;;;;;;;;;;;;26.62;100.00;97333.88;5125363;28;19924;-62
2022/08/19 05:07:45;;;;;;;;;;;;;;;26.56;100.00;97338.94;5122347;28;19924;-61
2022/08/19 05:10:12;;;;;;;;;;;;;;;26.24;100.00;97346.13;5121941;28;20003;-62
2022/08/19 05:12:38;;;;;;;;;;;;;;;26.23;100.00;97339.88;5124283;28;19924;-62
2022/08/19 05:15:08;;;;;;;;;;;;;;;26.49;100.00;97349.06;5125577;28;19924;-61
2022/08/19 05:17:34;;;;;;;;;;;;;;;26.38;100.00;97354.44;5123633;28;19923;-61
2022/08/19 05:22:46;;;;;;;;;;;;;;;26.12;100.00;97363.59;5124725;28;19924;-62
2022/08/19 05:25:14;;;;;;;;;;;;;;;26.35;100.00;97371.63;5123835;28;19924;-62
2022/08/19 05:27:41;;;;;;;;;;;;;;;26.38;100.00;97365.41;5121141;28;19928;-62
2022/08/19 05:30:08;;;;;;;;;;;;;;;26.42;100.00;97374.44;5121321;28;20566;-62
2022/08/19 05:32:34;;;;;;;;;;;;;;;26.46;100.00;97383.44;5122950;28;19924;-62
2022/08/19 05:35:01;;;;;;;;;;;;;;;26.41;100.00;97374.81;5124802;28;19962;-62
2022/08/19 05:37:27;;;;;;;;;;;;;;;25.95;100.00;97374.38;5123649;28;20018;-65
2022/08/19 05:39:55;;;;;;;;;;;;;;;26.00;100.00;97366.59;5121102;28;19943;-62
2022/08/19 05:42:22;;;;;;;;;;;;;;;25.83;100.00;97366.44;5121112;28;19931;-62
2022/08/19 05:44:49;;;;;;;;;;;;;;;26.18;100.00;97369.53;5124698;28;19924;-62
2022/08/19 05:47:18;;;;;;;;;;;;;;;25.97;100.00;97380.25;5124482;28;20061;-61
2022/08/19 05:49:45;;;;;;;;;;;;;;;25.85;100.00;97377.78;5121396;28;19928;-61
2022/08/19 05:52:13;;;;;;;;;;;;;;;25.47;100.00;97374.19;5121182;28;19960;-62
2022/08/19 05:54:41;;;;;;;;;;;;;;;25.57;100.00;97370.06;5135869;27;20634;-61
2022/08/19 05:57:09;;;;;;;;;;;;;;;25.73;100.00;97373.38;5124530;28;19924;-62
2022/08/19 05:59:36;;;;;;;;;;;;;;;25.98;100.00;97366.19;5122771;28;19951;-61
2022/08/19 06:02:02;;;;;;;;;;;;;;;25.75;100.00;97363.63;5120981;28;19928;-61
2022/08/19 06:04:29;;;;;;;;;;;;;;;25.65;100.00;97356.09;5121730;28;19966;-61
2022/08/19 06:06:56;;;;;;;;;;;;;;;25.70;100.00;97366.69;5106336;28;20519;-62
2022/08/19 06:09:23;;;;;;;;;;;;;;;25.45;100.00;97356.59;5124081;28;19924;-63
2022/08/19 06:11:53;;;;;;;;;;;;;;;24.99;100.00;97356.03;5120671;28;19947;-63
2022/08/19 06:14:22;;;;;;;;;;;;;;;25.39;100.00;97358.09;5120670;28;19924;-62
2022/08/19 06:16:50;;;;;;;;;;;;;;;25.49;100.00;97352.00;5120780;28;19924;-61
2022/08/19 06:19:17;;;;;;;;;;;;;;;25.75;100.00;97351.88;5120191;28;19926;-61
2022/08/19 06:21:44;;;;;;;;;;;;;;;25.63;100.00;97344.75;5123503;28;19924;-63
2022/08/19 06:24:12;;;;;;;;;;;;;;;25.43;100.00;97353.47;5128367;27;19974;-63
2022/08/19 06:26:41;;;;;;;;;;;;;;;25.51;100.00;97342.25;5125083;27;19930;-62
2022/08/19 06:29:08;;;;;;;;;;;;;;;25.64;100.00;97343.59;5123744;28;20010;-62
2022/08/19 06:31:36;;;;;;;;;;;;;;;25.60;100.00;97350.94;5121771;28;19996;-61
2022/08/19 06:34:03;;;;;;;;;;;;;;;25.57;100.00;97348.97;5120381;28;19974;-61
2022/08/19 06:36:31;;;;;;;;;;;;;;;25.90;100.00;97356.34;5121200;28;19974;-62
2022/08/19 06:38:57;;;;;;;;;;;;;;;25.96;100.00;97357.59;5123765;28;19928;-61
2022/08/19 06:41:24;;;;;;;;;;;;;;;25.22;100.00;97381.34;5123437;28;19952;-61
2022/08/19 06:43:50;;;;;;;;;;;;;;;24.88;100.00;97382.44;5119301;28;19920;-63
2022/08/19 06:46:18;;;;;;;;;;;;;;;25.13;100.00;97383.53;5120131;28;19924;-62
2022/08/19 06:48:46;;;;;;;;;;;;;;;25.65;100.00;97382.66;5123089;28;19974;-61
2022/08/19 06:51:15;;;;;;;;;;;;;;;25.13;100.00;97384.31;5123323;28;19981;-61
2022/08/19 06:53:46;;;;;;;;;;;;;;;24.76;100.00;97397.03;5121368;28;19924;-62
2022/08/19 06:56:13;;;;;;;;;;;;;;;24.95;100.00;97393.44;5129321;27;19971;-62
2022/08/19 06:58:39;;;;;;;;;;;;;;;24.89;100.00;97384.78;5122133;28;19924;-63
2022/08/19 07:01:06;;;;;;;;;;;;;;;24.95;100.00;97394.22;5123222;28;19966;-61
2022/08/19 07:03:34;;;;;;;;;;;;;;;25.31;100.00;97395.50;5121507;28;19927;-62
2022/08/19 07:06:05;;;;;;;;;;;;;;;25.65;100.00;97386.19;5101644;28;19955;-61
2022/08/19 07:08:31;;;;;;;;;;;;;;;25.18;100.00;97385.97;5120734;28;20033;-62
2022/08/19 07:10:58;;;;;;;;;;;;;;;24.57;100.00;97380.78;5123060;28;19924;-61
2022/08/19 07:13:24;;;;;;;;;;;;;;;24.82;100.00;97367.50;5122496;28;19924;-61
2022/08/19 07:15:50;;;;;;;;;;;;;;;24.87;100.00;97359.78;5119381;28;19959;-63
2022/08/19 07:18:17;;;;;;;;;;;;;;;25.11;100.00;97353.84;5119219;28;19958;-61
2022/08/19 07:20:44;;;;;;;;;;;;;;;24.97;100.00;97366.56;5122395;28;19983;-61
2022/08/19 07:23:11;;;;;;;;;;;;;;;25.48;100.00;97370.31;5122810;28;19927;-62
2022/08/19 07:25:38;;;;;;;;;;;;;;;25.86;100.00;97371.16;5132795;27;19983;-61
2022/08/19 07:28:08;;;;;;;;;;;;;;;25.89;100.00;97375.88;5119167;28;19931;-62
2022/08/19 07:30:37;;;;;;;;;;;;;;;26.14;100.00;97377.69;5120984;28;19928;-62
2022/08/19 07:33:03;;;;;;;;;;;;;;;26.37;100.00;97377.50;5122532;28;19926;-61
2022/08/19 07:35:31;;;;;;;;;;;;;;;26.45;100.00;97370.16;5121369;28;19981;-61
2022/08/19 07:37:58;;;;;;;;;;;;;;;26.60;100.00;97377.31;5118808;28;19935;-61
2022/08/19 07:40:26;;;;;;;;;;;;;;;26.69;100.00;97380.50;5119195;28;20059;-62
2022/08/19 07:42:53;;;;;;;;;;;;;;;26.78;100.00;97379.00;5122532;28;19930;-62
2022/08/19 07:45:19;;;;;;;;;;;;;;;26.79;100.00;97382.53;5122466;28;19991;-61
2022/08/19 07:47:45;;;;;;;;;;;;;;;26.57;100.00;97381.59;5119277;28;19920;-61
2022/08/19 07:50:12;;;;;;;;;;;;;;;26.69;100.00;97392.25;5119011;28;19955;-61
2022/08/19 07:52:39;;;;;;;;;;;;;;;26.70;100.00;97382.09;5121014;28;19936;-61
2022/08/19 07:55:06;;;;;;;;;;;;;;;26.54;100.00;97382.34;5133799;27;19935;-61
2022/08/19 07:57:34;;;;;;;;;;;;;;;26.26;100.00;97390.34;5120507;28;19924;-62
2022/08/19 08:00:00;;;;;;;;;;;;;;;25.96;100.00;97393.16;5118715;28;19996;-62
2022/08/19 08:02:26;;;;;;;;;;;;;;;25.92;100.00;97386.06;5119080;28;19925;-61
2022/08/19 08:10:21;;;;;;;;;;;;;;;25.83;100.00;97380.09;5118480;28;19946;-61
2022/08/19 08:12:48;;;;;;;;;;;;;;;25.95;100.00;97374.38;5118261;28;19991;-61
2022/08/19 08:15:18;;;;;;;;;;;;;;;26.01;100.00;97379.13;5118407;28;19952;-61
2022/08/19 08:17:45;;;;;;;;;;;;;;;25.84;100.00;97368.81;5121414;28;19991;-61
2022/08/19 08:20:11;;;;;;;;;;;;;;;25.46;100.00;97364.44;5121824;28;19934;-61
2022/08/19 08:25:23;;;;;;;;;;;;;;;25.41;100.00;97367.50;5132816;28;20005;-61
2022/08/19 08:27:51;;;;;;;;;;;;;;;25.67;100.00;97369.38;5118334;28;19925;-62
2022/08/19 08:30:20;;;;;;;;;;;;;;;25.82;100.00;97360.16;5118330;28;19931;-61
2022/08/19 08:32:46;;;;;;;;;;;;;;;25.65;100.00;97361.56;5121827;28;19924;-61
2022/08/19 08:35:15;;;;;;;;;;;;;;;25.86;100.00;97360.22;5122069;28;19967;-61
2022/08/19 08:37:41;;;;;;;;;;;;;;;25.79;100.00;97339.03;5118997;28;19970;-61
2022/08/19 08:40:14;;;;;;;;;;;;;;;25.61;100.00;97344.34;5118287;28;20732;-61
2022/08/19 08:42:47;;;;;;;;;;;;;;;25.28;100.00;97341.59;5120723;28;19948;-61
2022/08/19 08:45:17;;;;;;;;;;;;;;;24.96;100.00;97356.78;5121667;28;19924;-61
2022/08/19 08:47:47;;;;;;;;;;;;;;;24.95;100.00;97355.19;5118859;28;19959;-62
2022/08/19 08:50:16;;;;;;;;;;;;;;;24.88;100.00;97344.19;5118311;28;19924;-61
2022/08/19 08:52:45;;;;;;;;;;;;;;;24.58;100.00;97336.72;5121150;28;19927;-61
2022/08/19 08:55:14;;;;;;;;;;;;;;;24.43;100.00;97334.13;5134465;28;19924;-61
2022/08/19 08:57:54;;;;;;;;;;;;;;;24.12;100.00;97319.63;5119854;28;19963;-61
2022/08/19 09:00:23;;;;;;;;;;;;;;;24.50;100.00;97326.06;5118501;28;19936;-61
2022/08/19 09:02:50;;;;;;;;;;;;;;;24.58;100.00;97327.72;5118665;28;19920;-61
2022/08/19 09:05:18;;;;;;;;;;;;;;;24.29;100.00;97333.94;5118610;28;19924;-62
2022/08/19 09:07:55;;;;;;;;;;;;;;;24.57;100.00;97332.41;5124966;28;20016;-61
2022/08/19 09:10:24;;;;;;;;;;;;;;;24.87;100.00;97339.88;5125697;28;19934;-62
2022/08/19 09:12:55;;;;;;;;;;;;;;;25.57;100.00;97346.22;5122366;28;19966;-61
2022/08/19 09:15:29;;;;;;;;;;;;;;;25.52;100.00;97345.78;5122354;28;19924;-61
2022/08/19 09:17:55;;;;;;;;;;;;;;;25.55;100.00;97347.78;5113807;28;19962;-61
2022/08/19 09:20:23;;;;;;;;;;;;;;;25.12;100.00;97351.91;5113424;28;19924;-61
2022/08/19 09:22:50;;;;;;;;;;;;;;;24.88;100.00;97360.56;5117450;28;19955;-61
2022/08/19 09:25:19;;;;;;;;;;;;;;;24.68;100.00;97355.19;5137740;27;19950;-61
2022/08/19 09:27:45;;;;;;;;;;;;;;;24.33;100.00;97362.03;5122049;28;19988;-60
2022/08/19 09:30:13;;;;;;;;;;;;;;;24.21;100.00;97365.75;5121605;28;19924;-61
2022/08/19 09:32:42;;;;;;;;;;;;;;;24.27;100.00;97375.22;5124021;28;19951;-60
2022/08/19 09:35:09;;;;;;;;;;;;;;;24.57;100.00;97367.88;5124882;28;19930;-61
2022/08/19 09:37:35;;;;;;;;;;;;;;;24.89;100.00;97371.13;5122958;28;19928;-61
2022/08/19 09:40:02;;;;;;;;;;;;;;;25.32;100.00;97371.66;5121512;28;19967;-61
2022/08/19 09:42:28;;;;;;;;;;;;;;;24.71;100.00;97370.84;5122118;28;19951;-61
2022/08/19 09:44:54;;;;;;;;;;;;;;;24.66;100.00;97373.88;5124855;28;19920;-61
2022/08/19 09:47:21;;;;;;;;;;;;;;;24.86;100.00;97374.59;5124759;28;19963;-62
2022/08/19 09:49:50;;;;;;;;;;;;;;;24.95;100.00;97385.25;5121419;28;19959;-61
2022/08/19 09:52:17;;;;;;;;;;;;;;;25.14;100.00;97379.66;5121176;28;19931;-60
2022/08/19 09:54:43;;;;;;;;;;;;;;;24.89;100.00;97382.03;5118041;28;19923;-61
2022/08/19 09:57:10;;;;;;;;;;;;;;;24.96;100.00;97390.34;5124420;28;19920;-61
2022/08/19 09:59:36;;;;;;;;;;;;;;;24.99;100.00;97388.81;5122401;28;19924;-61
2022/08/19 10:02:03;;;;;;;;;;;;;;;24.93;100.00;97399.28;5120927;28;19924;-61
2022/08/19 10:07:11;;;;;;;;;;;;;;;25.45;100.00;97389.41;5123298;28;19923;-62
2022/08/19 10:09:39;;;;;;;;;;;;;;;25.47;100.00;97398.81;5122218;28;19924;-61
2022/08/19 10:12:06;;;;;;;;;;;;;;;25.70;100.00;97402.25;5120772;28;19946;-61
2022/08/19 10:14:32;;;;;;;;;;;;;;;25.24;100.00;97401.66;5122224;28;19955;-62
2022/08/19 10:17:00;;;;;;;;;;;;;;;25.34;100.00;97400.22;5124128;28;19959;-61
2022/08/19 10:19:29;;;;;;;;;;;;;;;25.46;100.00;97397.25;5122975;28;19923;-62
2022/08/19 10:21:56;;;;;;;;;;;;;;;25.44;100.00;97393.31;5120646;28;19924;-62
2022/08/19 10:24:27;;;;;;;;;;;;;;;25.29;100.00;97386.09;5132880;27;19963;-62
2022/08/19 10:26:53;;;;;;;;;;;;;;;24.88;100.00;97383.19;5112124;28;19931;-61
2022/08/19 10:29:19;;;;;;;;;;;;;;;24.90;100.00;97382.84;5111858;28;19951;-61
2022/08/19 10:31:47;;;;;;;;;;;;;;;24.99;100.00;97375.16;5111990;28;19946;-62
2022/08/19 10:34:13;;;;;;;;;;;;;;;24.97;100.00;97374.75;5111804;28;19920;-62
2022/08/19 10:36:40;;;;;;;;;;;;;;;25.15;100.00;97367.56;5111720;28;19955;-62
2022/08/19 10:39:08;;;;;;;;;;;;;;;25.19;100.00;97374.66;5111808;28;19924;-61
2022/08/19 10:41:37;;;;;;;;;;;;;;;24.97;100.00;97380.22;5111743;28;19928;-61
2022/08/19 10:44:05;;;;;;;;;;;;;;;25.00;100.00;97377.53;5111582;28;19957;-61
2022/08/19 10:46:32;;;;;;;;;;;;;;;25.02;100.00;97374.41;5111233;28;19928;-61
2022/08/19 10:48:58;;;;;;;;;;;;;;;25.02;100.00;97366.22;5111504;28;19935;-61
2022/08/19 10:54:09;;;;;;;;;;;;;;;24.77;100.00;97360.38;5122172;27;19934;-61
2022/08/19 10:56:51;;;;;;;;;;;;;;;25.01;100.00;97372.84;5124939;27;19920;-61
2022/08/19 10:59:19;;;;;;;;;;;;;;;25.40;100.00;97370.63;5123432;28;19991;-61
2022/08/19 11:01:46;;;;;;;;;;;;;;;25.40;100.00;97376.09;5120238;28;19924;-61
2022/08/19 11:04:13;;;;;;;;;;;;;;;25.43;100.00;97364.41;5119724;28;19931;-62
2022/08/19 11:06:40;;;;;;;;;;;;;;;25.33;100.00;97373.25;5122438;28;19924;-61
2022/08/19 11:09:07;;;;;;;;;;;;;;;25.26;100.00;97365.75;5123429;28;19963;-61
2022/08/19 11:11:35;;;;;;;;;;;;;;;25.29;100.00;97362.28;5121838;28;19947;-61
2022/08/19 11:14:02;;;;;;;;;;;;;;;24.98;100.00;97360.72;5119972;28;19987;-61
2022/08/19 11:16:31;;;;;;;;;;;;;;;25.38;100.00;97360.03;5120588;28;20410;-61
2022/08/19 11:18:59;;;;;;;;;;;;;;;24.98;100.00;97363.44;5123186;28;19987;-61
2022/08/19 11:21:26;;;;;;;;;;;;;;;25.14;100.00;97366.00;5122445;28;19935;-61
2022/08/19 11:23:54;;;;;;;;;;;;;;;24.83;100.00;97363.59;5123242;27;19991;-61
2022/08/19 11:26:21;;;;;;;;;;;;;;;24.64;100.00;97362.53;5126643;27;19924;-61
2022/08/19 11:28:48;;;;;;;;;;;;;;;24.86;100.00;97357.41;5122684;28;19946;-61
2022/08/19 11:31:17;;;;;;;;;;;;;;;24.77;100.00;97365.84;5122630;28;19941;-61
2022/08/19 11:33:43;;;;;;;;;;;;;;;24.88;100.00;97360.56;5119710;28;19935;-61
2022/08/19 11:36:11;;;;;;;;;;;;;;;24.83;100.00;97364.41;5118953;28;19966;-60
2022/08/19 11:38:37;;;;;;;;;;;;;;;25.21;100.00;97372.34;5120997;28;19948;-62
2022/08/19 11:41:04;;;;;;;;;;;;;;;25.42;100.00;97373.75;5122576;28;20076;-60
2022/08/19 11:43:31;;;;;;;;;;;;;;;25.49;100.00;97374.66;5121139;28;19931;-61
2022/08/19 11:45:58;;;;;;;;;;;;;;;25.34;100.00;97375.63;5119057;28;19963;-61
2022/08/19 11:48:26;;;;;;;;;;;;;;;25.49;100.00;97373.88;5119311;28;19931;-61
2022/08/19 11:50:55;;;;;;;;;;;;;;;25.62;100.00;97367.78;5122671;28;19927;-61
2022/08/19 11:53:21;;;;;;;;;;;;;;;25.68;100.00;97355.34;5122332;28;19991;-61
2022/08/19 11:55:48;;;;;;;;;;;;;;;25.85;100.00;97364.09;5131399;27;20418;-60
2022/08/19 11:58:16;;;;;;;;;;;;;;;25.59;100.00;97356.81;5118963;28;19939;-60
2022/08/19 12:00:44;;;;;;;;;;;;;;;25.62;100.00;97356.84;5121592;28;19946;-61
2022/08/19 12:03:11;;;;;;;;;;;;;;;25.65;100.00;97356.09;5122456;28;19928;-61
2022/08/19 12:05:40;;;;;;;;;;;;;;;25.34;100.00;97356.50;5120188;28;20402;-60
2022/08/19 12:08:06;;;;;;;;;;;;;;;25.30;100.00;97355.66;5101058;28;19982;-61
2022/08/19 12:10:33;;;;;;;;;;;;;;;25.24;100.00;97354.41;5120136;28;19931;-60
2022/08/19 12:12:59;;;;;;;;;;;;;;;24.91;100.00;97355.16;5104484;28;19924;-61
2022/08/19 12:15:27;;;;;;;;;;;;;;;24.49;100.00;97349.84;5121730;28;19983;-61
2022/08/19 12:17:56;;;;;;;;;;;;;;;24.53;100.00;97350.69;5118866;28;19980;-62
2022/08/19 12:20:22;;;;;;;;;;;;;;;24.61;100.00;97349.63;5118688;28;19959;-61
2022/08/19 12:22:51;;;;;;;;;;;;;;;24.58;100.00;97355.03;5118780;28;19924;-60
2022/08/19 12:25:17;;;;;;;;;;;;;;;24.98;100.00;97351.72;5132373;28;19959;-60
2022/08/19 12:27:44;;;;;;;;;;;;;;;25.26;100.00;97349.34;5118988;28;19924;-62
2022/08/19 12:30:12;;;;;;;;;;;;;;;25.14;100.00;97353.13;5118610;28;19924;-61
2022/08/19 12:32:39;;;;;;;;;;;;;;;25.12;100.00;97351.91;5120761;28;19931;-61
2022/08/19 12:35:06;;;;;;;;;;;;;;;25.37;100.00;97346.75;5122220;28;19962;-61
2022/08/19 12:37:32;;;;;;;;;;;;;;;25.72;100.00;97350.69;5120683;28;19946;-62
2022/08/19 12:40:00;;;;;;;;;;;;;;;25.99;100.00;97353.31;5118741;28;19932;-60
2022/08/19 12:42:26;;;;;;;;;;;;;;;26.14;100.00;97355.00;5122103;28;19924;-61
2022/08/19 12:44:53;;;;;;;;;;;;;;;26.24;100.00;97351.63;5126342;28;19987;-62
2022/08/19 12:47:20;;;;;;;;;;;;;;;26.36;100.00;97350.53;5126079;28;20503;-61
2022/08/19 12:49:46;;;;;;;;;;;;;;;26.40;100.00;97348.63;5104723;28;19927;-61
2022/08/19 12:52:15;;;;;;;;;;;;;;;26.56;100.00;97346.34;5122516;28;19924;-61
2022/08/19 12:54:41;;;;;;;;;;;;;;;26.65;100.00;97352.28;5137892;27;19926;-61
2022/08/19 12:57:10;;;;;;;;;;;;;;;26.61;100.00;97348.75;5126025;28;19987;-61